sensor_id;sensor_type;location;lat;lon;timestamp;temperature;humidity
20728;DHT22;10525;50.154;8.198;2023-02-01T00:01:55;4.40;99.90
20728;DHT22;10525;50.154;8.198;2023-02-01T00:04:22;4.40;99.90
20728;DHT22;10525;50.154;8.198;2023-02-01T00:06:49;4.40;99.90
20728;DHT22;10525;50.154;8.198;2023-02-01T00:09:15;4.40;99.90
20728;DHT22;10525;50.154;8.198;2023-02-01T00:11:44;4.40;99.90
20728;DHT22;10525;50.154;8.198;2023-02-01T00:14:11;4.40;99.90
20728;DHT22;10525;50.154;8.198;2023-02-01T00:16:39;4.40;99.90
20728;DHT22;10525;50.154;8.198;2023-02-01T00:19:07;4.40;99.90
20728;DHT22;10525;50.154;8.198;2023-02-01T00:21:34;4.40;99.90
20728;DHT22;10525;50.154;8.198;2023-02-01T00:24:01;4.30;99.90
20728;DHT22;10525;50.154;8.198;2023-02-01T00:26:31;4.30;99.90
20728;DHT22;10525;50.154;8.198;2023-02-01T00:28:59;4.20;99.90
20728;DHT22;10525;50.154;8.198;2023-02-01T00:31:26;4.20;99.90
20728;DHT22;10525;50.154;8.198;2023-02-01T00:33:53;4.30;99.90
20728;DHT22;10525;50.154;8.198;2023-02-01T00:36:20;4.30;99.90
20728;DHT22;10525;50.154;8.198;2023-02-01T00:38:46;4.30;99.90
20728;DHT22;10525;50.154;8.198;2023-02-01T00:41:15;4.40;99.90
20728;DHT22;10525;50.154;8.198;2023-02-01T00:43:43;4.40;99.90
20728;DHT22;10525;50.154;8.198;2023-02-01T00:46:12;4.30;99.90
20728;DHT22;10525;50.154;8.198;2023-02-01T00:48:39;4.30;99.90
20728;DHT22;10525;50.154;8.198;2023-02-01T00:51:07;4.30;99.90
20728;DHT22;10525;50.154;8.198;2023-02-01T00:53:35;4.40;99.90
20728;DHT22;10525;50.154;8.198;2023-02-01T00:56:02;4.40;99.90
20728;DHT22;10525;50.154;8.198;2023-02-01T00:58:30;4.40;99.90
20728;DHT22;10525;50.154;8.198;2023-02-01T01:01:01;4.40;99.90
20728;DHT22;10525;50.154;8.198;2023-02-01T01:03:30;4.40;99.90
20728;DHT22;10525;50.154;8.198;2023-02-01T01:05:59;4.50;99.90
20728;DHT22;10525;50.154;8.198;2023-02-01T01:08:26;4.50;99.90
20728;DHT22;10525;50.154;8.198;2023-02-01T01:10:53;4.50;99.90
20728;DHT22;10525;50.154;8.198;2023-02-01T01:13:20;4.50;99.90
20728;DHT22;10525;50.154;8.198;2023-02-01T01:15:46;4.50;99.90
20728;DHT22;10525;50.154;8.198;2023-02-01T01:18:13;4.50;99.90
20728;DHT22;10525;50.154;8.198;2023-02-01T01:20:41;4.60;99.90
20728;DHT22;10525;50.154;8.198;2023-02-01T01:23:09;4.60;99.90
20728;DHT22;10525;50.154;8.198;2023-02-01T01:25:37;4.60;99.90
20728;DHT22;10525;50.154;8.198;2023-02-01T01:28:05;4.60;99.90
20728;DHT22;10525;50.154;8.198;2023-02-01T01:30:32;4.60;99.90
20728;DHT22;10525;50.154;8.198;2023-02-01T01:32:59;4.60;99.90
20728;DHT22;10525;50.154;8.198;2023-02-01T01:35:26;4.60;99.90
20728;DHT22;10525;50.154;8.198;2023-02-01T01:37:56;4.60;99.90
20728;DHT22;10525;50.154;8.198;2023-02-01T01:40:22;4.60;99.90
20728;DHT22;10525;50.154;8.198;2023-02-01T01:42:49;4.60;99.90
20728;DHT22;10525;50.154;8.198;2023-02-01T01:45:22;4.60;99.90
20728;DHT22;10525;50.154;8.198;2023-02-01T01:47:52;4.60;99.90
20728;DHT22;10525;50.154;8.198;2023-02-01T01:50:24;4.60;99.90
20728;DHT22;10525;50.154;8.198;2023-02-01T01:52:56;4.60;99.90
20728;DHT22;10525;50.154;8.198;2023-02-01T01:55:25;4.60;99.90
20728;DHT22;10525;50.154;8.198;2023-02-01T01:57:55;4.60;99.90
20728;DHT22;10525;50.154;8.198;2023-02-01T02:00:24;4.60;99.90
20728;DHT22;10525;50.154;8.198;2023-02-01T02:02:54;4.60;99.90
20728;DHT22;10525;50.154;8.198;2023-02-01T02:05:23;4.60;99.90
20728;DHT22;10525;50.154;8.198;2023-02-01T02:07:51;4.70;99.90
20728;DHT22;10525;50.154;8.198;2023-02-01T02:10:20;4.60;99.90
20728;DHT22;10525;50.154;8.198;2023-02-01T02:13:07;4.60;99.90
20728;DHT22;10525;50.154;8.198;2023-02-01T02:15:37;4.60;99.90
20728;DHT22;10525;50.154;8.198;2023-02-01T02:18:14;4.70;99.90
20728;DHT22;10525;50.154;8.198;2023-02-01T02:21:09;4.60;99.90
20728;DHT22;10525;50.154;8.198;2023-02-01T02:23:58;4.60;99.90
20728;DHT22;10525;50.154;8.198;2023-02-01T02:26:41;4.60;99.90
20728;DHT22;10525;50.154;8.198;2023-02-01T02:32:47;4.60;99.90
20728;DHT22;10525;50.154;8.198;2023-02-01T02:35:28;4.50;99.90
20728;DHT22;10525;50.154;8.198;2023-02-01T02:38:05;4.50;99.90
20728;DHT22;10525;50.154;8.198;2023-02-01T02:40:41;4.50;99.90
20728;DHT22;10525;50.154;8.198;2023-02-01T02:43:11;4.50;99.90
20728;DHT22;10525;50.154;8.198;2023-02-01T02:45:58;4.60;99.90
20728;DHT22;10525;50.154;8.198;2023-02-01T02:48:47;4.60;99.90
20728;DHT22;10525;50.154;8.198;2023-02-01T02:51:23;4.60;99.90
20728;DHT22;10525;50.154;8.198;2023-02-01T02:54:11;4.60;99.90
20728;DHT22;10525;50.154;8.198;2023-02-01T02:56:58;4.60;99.90
20728;DHT22;10525;50.154;8.198;2023-02-01T02:59:44;4.60;99.90
20728;DHT22;10525;50.154;8.198;2023-02-01T03:02:31;4.60;99.90
20728;DHT22;10525;50.154;8.198;2023-02-01T03:05:15;4.60;99.90
20728;DHT22;10525;50.154;8.198;2023-02-01T03:08:04;4.60;99.90
20728;DHT22;10525;50.154;8.198;2023-02-01T03:10:41;4.60;99.90
20728;DHT22;10525;50.154;8.198;2023-02-01T03:13:11;4.70;99.90
20728;DHT22;10525;50.154;8.198;2023-02-01T03:15:41;4.60;99.90
20728;DHT22;10525;50.154;8.198;2023-02-01T03:18:12;4.70;99.90
20728;DHT22;10525;50.154;8.198;2023-02-01T03:20:44;4.60;99.90
20728;DHT22;10525;50.154;8.198;2023-02-01T03:23:15;4.60;99.90
20728;DHT22;10525;50.154;8.198;2023-02-01T03:25:44;4.60;99.90
20728;DHT22;10525;50.154;8.198;2023-02-01T03:28:13;4.60;99.90
20728;DHT22;10525;50.154;8.198;2023-02-01T03:30:42;4.60;99.90
20728;DHT22;10525;50.154;8.198;2023-02-01T03:33:13;4.60;99.90
20728;DHT22;10525;50.154;8.198;2023-02-01T03:35:52;4.50;99.90
20728;DHT22;10525;50.154;8.198;2023-02-01T03:38:24;4.50;99.90
20728;DHT22;10525;50.154;8.198;2023-02-01T03:40:57;4.60;99.90
20728;DHT22;10525;50.154;8.198;2023-02-01T03:43:27;4.50;99.90
20728;DHT22;10525;50.154;8.198;2023-02-01T03:46:00;4.50;99.90
20728;DHT22;10525;50.154;8.198;2023-02-01T03:48:28;4.50;99.90
20728;DHT22;10525;50.154;8.198;2023-02-01T03:50:58;4.50;99.90
20728;DHT22;10525;50.154;8.198;2023-02-01T03:53:28;4.40;99.90
20728;DHT22;10525;50.154;8.198;2023-02-01T03:55:56;4.40;99.90
20728;DHT22;10525;50.154;8.198;2023-02-01T03:58:23;4.50;99.90
20728;DHT22;10525;50.154;8.198;2023-02-01T04:00:53;4.50;99.90
20728;DHT22;10525;50.154;8.198;2023-02-01T04:03:20;4.50;99.90
20728;DHT22;10525;50.154;8.198;2023-02-01T04:05:48;4.50;99.90
20728;DHT22;10525;50.154;8.198;2023-02-01T04:08:14;4.50;99.90
20728;DHT22;10525;50.154;8.198;2023-02-01T04:10:42;4.50;99.90
20728;DHT22;10525;50.154;8.198;2023-02-01T04:13:09;4.50;99.90
20728;DHT22;10525;50.154;8.198;2023-02-01T04:15:36;4.50;99.90
20728;DHT22;10525;50.154;8.198;2023-02-01T04:18:02;4.50;99.90
20728;DHT22;10525;50.154;8.198;2023-02-01T04:20:29;4.50;99.90
20728;DHT22;10525;50.154;8.198;2023-02-01T04:22:56;4.50;99.90
20728;DHT22;10525;50.154;8.198;2023-02-01T04:25:23;4.50;99.90
20728;DHT22;10525;50.154;8.198;2023-02-01T04:27:51;4.50;99.90
20728;DHT22;10525;50.154;8.198;2023-02-01T04:30:17;4.50;99.90
20728;DHT22;10525;50.154;8.198;2023-02-01T04:32:44;4.40;99.90
20728;DHT22;10525;50.154;8.198;2023-02-01T04:35:11;4.50;99.90
20728;DHT22;10525;50.154;8.198;2023-02-01T04:37:37;4.40;99.90
20728;DHT22;10525;50.154;8.198;2023-02-01T04:40:05;4.50;99.90
20728;DHT22;10525;50.154;8.198;2023-02-01T04:42:32;4.40;99.90
20728;DHT22;10525;50.154;8.198;2023-02-01T04:45:00;4.40;99.90
20728;DHT22;10525;50.154;8.198;2023-02-01T04:47:26;4.50;99.90
20728;DHT22;10525;50.154;8.198;2023-02-01T04:49:53;4.40;99.90
20728;DHT22;10525;50.154;8.198;2023-02-01T04:52:20;4.40;99.90
20728;DHT22;10525;50.154;8.198;2023-02-01T04:54:46;4.40;99.90
20728;DHT22;10525;50.154;8.198;2023-02-01T04:57:13;4.50;99.90
20728;DHT22;10525;50.154;8.198;2023-02-01T04:59:40;4.40;99.90
20728;DHT22;10525;50.154;8.198;2023-02-01T05:02:08;4.40;99.90
20728;DHT22;10525;50.154;8.198;2023-02-01T05:04:35;4.40;99.90
20728;DHT22;10525;50.154;8.198;2023-02-01T05:07:01;4.40;99.90
20728;DHT22;10525;50.154;8.198;2023-02-01T05:09:28;4.40;99.90
20728;DHT22;10525;50.154;8.198;2023-02-01T05:11:54;4.30;99.90
20728;DHT22;10525;50.154;8.198;2023-02-01T05:14:38;4.40;99.90
20728;DHT22;10525;50.154;8.198;2023-02-01T05:17:05;4.40;99.90
20728;DHT22;10525;50.154;8.198;2023-02-01T05:19:33;4.40;99.90
20728;DHT22;10525;50.154;8.198;2023-02-01T05:22:00;4.40;99.90
20728;DHT22;10525;50.154;8.198;2023-02-01T05:24:27;4.50;99.90
20728;DHT22;10525;50.154;8.198;2023-02-01T05:26:53;4.50;99.90
20728;DHT22;10525;50.154;8.198;2023-02-01T05:29:20;4.60;99.90
20728;DHT22;10525;50.154;8.198;2023-02-01T05:31:47;4.60;99.90
20728;DHT22;10525;50.154;8.198;2023-02-01T05:34:15;4.60;99.90
20728;DHT22;10525;50.154;8.198;2023-02-01T05:36:43;4.60;99.90
20728;DHT22;10525;50.154;8.198;2023-02-01T05:39:10;4.60;99.90
20728;DHT22;10525;50.154;8.198;2023-02-01T05:41:37;4.60;99.90
20728;DHT22;10525;50.154;8.198;2023-02-01T05:44:03;4.60;99.90
20728;DHT22;10525;50.154;8.198;2023-02-01T05:46:32;4.50;99.90
20728;DHT22;10525;50.154;8.198;2023-02-01T05:48:59;4.50;99.90
20728;DHT22;10525;50.154;8.198;2023-02-01T05:51:26;4.50;99.90
20728;DHT22;10525;50.154;8.198;2023-02-01T05:53:54;4.50;99.90
20728;DHT22;10525;50.154;8.198;2023-02-01T05:56:20;4.50;99.90
20728;DHT22;10525;50.154;8.198;2023-02-01T05:58:47;4.50;99.90
20728;DHT22;10525;50.154;8.198;2023-02-01T06:01:14;4.40;99.90
20728;DHT22;10525;50.154;8.198;2023-02-01T06:03:40;4.40;99.90
20728;DHT22;10525;50.154;8.198;2023-02-01T06:06:07;4.30;99.90
20728;DHT22;10525;50.154;8.198;2023-02-01T06:08:34;4.30;99.90
20728;DHT22;10525;50.154;8.198;2023-02-01T06:11:03;4.30;99.90
20728;DHT22;10525;50.154;8.198;2023-02-01T06:13:30;4.20;99.90
20728;DHT22;10525;50.154;8.198;2023-02-01T06:15:57;4.10;99.90
20728;DHT22;10525;50.154;8.198;2023-02-01T06:18:24;4.10;99.90
20728;DHT22;10525;50.154;8.198;2023-02-01T06:20:53;4.00;99.90
20728;DHT22;10525;50.154;8.198;2023-02-01T06:23:20;4.00;99.90
20728;DHT22;10525;50.154;8.198;2023-02-01T06:25:50;3.90;99.90
20728;DHT22;10525;50.154;8.198;2023-02-01T06:28:18;3.80;99.90
20728;DHT22;10525;50.154;8.198;2023-02-01T06:30:45;3.70;99.90
20728;DHT22;10525;50.154;8.198;2023-02-01T06:33:12;3.60;99.90
20728;DHT22;10525;50.154;8.198;2023-02-01T06:35:40;3.50;99.90
20728;DHT22;10525;50.154;8.198;2023-02-01T06:38:08;3.50;99.90
20728;DHT22;10525;50.154;8.198;2023-02-01T06:40:34;3.60;99.90
20728;DHT22;10525;50.154;8.198;2023-02-01T06:43:01;3.50;99.90
20728;DHT22;10525;50.154;8.198;2023-02-01T06:45:30;3.40;99.90
20728;DHT22;10525;50.154;8.198;2023-02-01T06:47:58;3.40;99.90
20728;DHT22;10525;50.154;8.198;2023-02-01T06:50:25;3.40;99.90
20728;DHT22;10525;50.154;8.198;2023-02-01T06:52:52;3.40;99.90
20728;DHT22;10525;50.154;8.198;2023-02-01T06:55:18;3.40;99.90
20728;DHT22;10525;50.154;8.198;2023-02-01T06:57:45;3.30;99.90
20728;DHT22;10525;50.154;8.198;2023-02-01T07:00:12;3.30;99.90
20728;DHT22;10525;50.154;8.198;2023-02-01T07:02:41;3.30;99.90
20728;DHT22;10525;50.154;8.198;2023-02-01T07:05:08;3.40;99.90
20728;DHT22;10525;50.154;8.198;2023-02-01T07:07:35;3.40;99.90
20728;DHT22;10525;50.154;8.198;2023-02-01T07:10:02;3.40;99.90
20728;DHT22;10525;50.154;8.198;2023-02-01T07:12:29;3.30;99.90
20728;DHT22;10525;50.154;8.198;2023-02-01T07:14:55;3.40;99.90
20728;DHT22;10525;50.154;8.198;2023-02-01T07:17:22;3.40;99.90
20728;DHT22;10525;50.154;8.198;2023-02-01T07:19:50;3.30;99.90
20728;DHT22;10525;50.154;8.198;2023-02-01T07:22:17;3.30;99.90
20728;DHT22;10525;50.154;8.198;2023-02-01T07:24:44;3.40;99.90
20728;DHT22;10525;50.154;8.198;2023-02-01T07:27:10;3.40;99.90
20728;DHT22;10525;50.154;8.198;2023-02-01T07:29:37;3.40;99.90
20728;DHT22;10525;50.154;8.198;2023-02-01T07:32:04;3.40;99.90
20728;DHT22;10525;50.154;8.198;2023-02-01T07:34:31;3.40;99.90
20728;DHT22;10525;50.154;8.198;2023-02-01T07:36:59;3.40;99.90
20728;DHT22;10525;50.154;8.198;2023-02-01T07:39:26;3.40;99.90
20728;DHT22;10525;50.154;8.198;2023-02-01T07:41:53;3.30;99.90
20728;DHT22;10525;50.154;8.198;2023-02-01T07:44:21;3.40;99.90
20728;DHT22;10525;50.154;8.198;2023-02-01T07:46:48;3.40;99.90
20728;DHT22;10525;50.154;8.198;2023-02-01T07:49:15;3.50;99.90
20728;DHT22;10525;50.154;8.198;2023-02-01T07:51:43;3.50;99.90
20728;DHT22;10525;50.154;8.198;2023-02-01T07:54:11;3.50;99.90
20728;DHT22;10525;50.154;8.198;2023-02-01T07:56:37;3.60;99.90
20728;DHT22;10525;50.154;8.198;2023-02-01T07:59:04;3.70;99.90
20728;DHT22;10525;50.154;8.198;2023-02-01T08:01:32;3.80;99.90
20728;DHT22;10525;50.154;8.198;2023-02-01T08:04:00;3.80;99.90
20728;DHT22;10525;50.154;8.198;2023-02-01T08:06:29;3.80;99.90
20728;DHT22;10525;50.154;8.198;2023-02-01T08:08:57;3.90;99.90
20728;DHT22;10525;50.154;8.198;2023-02-01T08:11:25;4.00;99.90
20728;DHT22;10525;50.154;8.198;2023-02-01T08:13:52;4.00;99.90
20728;DHT22;10525;50.154;8.198;2023-02-01T08:16:20;4.00;99.90
20728;DHT22;10525;50.154;8.198;2023-02-01T08:18:47;4.10;99.90
20728;DHT22;10525;50.154;8.198;2023-02-01T08:21:16;4.10;99.90
20728;DHT22;10525;50.154;8.198;2023-02-01T08:23:43;4.20;99.90
20728;DHT22;10525;50.154;8.198;2023-02-01T08:26:11;4.30;99.90
20728;DHT22;10525;50.154;8.198;2023-02-01T08:28:42;4.50;99.90
20728;DHT22;10525;50.154;8.198;2023-02-01T08:31:10;4.60;99.90
20728;DHT22;10525;50.154;8.198;2023-02-01T08:33:40;4.80;99.90
20728;DHT22;10525;50.154;8.198;2023-02-01T08:36:08;5.00;99.90
20728;DHT22;10525;50.154;8.198;2023-02-01T08:38:36;5.10;99.90
20728;DHT22;10525;50.154;8.198;2023-02-01T08:41:06;5.00;99.90
20728;DHT22;10525;50.154;8.198;2023-02-01T08:43:33;5.00;99.90
20728;DHT22;10525;50.154;8.198;2023-02-01T08:46:02;5.00;99.90
20728;DHT22;10525;50.154;8.198;2023-02-01T08:48:29;5.00;99.90
20728;DHT22;10525;50.154;8.198;2023-02-01T08:50:56;5.00;99.90
20728;DHT22;10525;50.154;8.198;2023-02-01T08:53:23;5.00;99.90
20728;DHT22;10525;50.154;8.198;2023-02-01T08:55:50;5.00;99.90
20728;DHT22;10525;50.154;8.198;2023-02-01T08:58:16;5.00;99.90
20728;DHT22;10525;50.154;8.198;2023-02-01T09:00:43;5.00;99.90
20728;DHT22;10525;50.154;8.198;2023-02-01T09:03:12;5.00;99.90
20728;DHT22;10525;50.154;8.198;2023-02-01T09:05:39;4.90;99.90
20728;DHT22;10525;50.154;8.198;2023-02-01T09:08:06;5.00;99.90
20728;DHT22;10525;50.154;8.198;2023-02-01T09:10:33;5.10;99.90
20728;DHT22;10525;50.154;8.198;2023-02-01T09:13:00;5.10;99.90
20728;DHT22;10525;50.154;8.198;2023-02-01T09:15:28;5.20;99.90
20728;DHT22;10525;50.154;8.198;2023-02-01T09:17:55;5.20;99.90
20728;DHT22;10525;50.154;8.198;2023-02-01T09:20:23;5.30;99.90
20728;DHT22;10525;50.154;8.198;2023-02-01T09:22:50;5.20;99.90
20728;DHT22;10525;50.154;8.198;2023-02-01T09:25:17;5.20;99.90
20728;DHT22;10525;50.154;8.198;2023-02-01T09:27:44;5.20;99.90
20728;DHT22;10525;50.154;8.198;2023-02-01T09:30:11;5.20;99.90
20728;DHT22;10525;50.154;8.198;2023-02-01T09:32:38;5.20;99.90
20728;DHT22;10525;50.154;8.198;2023-02-01T09:35:06;5.20;99.90
20728;DHT22;10525;50.154;8.198;2023-02-01T09:37:34;5.20;99.90
20728;DHT22;10525;50.154;8.198;2023-02-01T09:40:01;5.30;99.90
20728;DHT22;10525;50.154;8.198;2023-02-01T09:42:45;5.20;99.90
20728;DHT22;10525;50.154;8.198;2023-02-01T09:45:20;5.20;99.90
20728;DHT22;10525;50.154;8.198;2023-02-01T09:47:53;5.20;99.90
20728;DHT22;10525;50.154;8.198;2023-02-01T09:50:25;5.10;99.90
20728;DHT22;10525;50.154;8.198;2023-02-01T09:53:00;5.10;99.90
20728;DHT22;10525;50.154;8.198;2023-02-01T09:55:34;5.10;99.90
20728;DHT22;10525;50.154;8.198;2023-02-01T09:58:05;5.10;99.90
20728;DHT22;10525;50.154;8.198;2023-02-01T10:00:35;5.10;99.90
20728;DHT22;10525;50.154;8.198;2023-02-01T10:03:03;5.10;99.90
20728;DHT22;10525;50.154;8.198;2023-02-01T10:05:43;5.20;99.90
20728;DHT22;10525;50.154;8.198;2023-02-01T10:08:19;5.30;99.90
20728;DHT22;10525;50.154;8.198;2023-02-01T10:10:50;5.50;99.90
20728;DHT22;10525;50.154;8.198;2023-02-01T10:13:27;5.60;99.90
20728;DHT22;10525;50.154;8.198;2023-02-01T10:16:10;5.60;99.90
20728;DHT22;10525;50.154;8.198;2023-02-01T10:18:49;5.40;99.90
20728;DHT22;10525;50.154;8.198;2023-02-01T10:21:28;5.40;99.90
20728;DHT22;10525;50.154;8.198;2023-02-01T10:24:20;5.50;99.90
20728;DHT22;10525;50.154;8.198;2023-02-01T10:26:55;5.50;99.90
20728;DHT22;10525;50.154;8.198;2023-02-01T10:29:27;5.60;99.90
20728;DHT22;10525;50.154;8.198;2023-02-01T10:31:57;5.40;99.90
20728;DHT22;10525;50.154;8.198;2023-02-01T10:34:27;5.50;99.90
20728;DHT22;10525;50.154;8.198;2023-02-01T10:36:56;5.50;99.90
20728;DHT22;10525;50.154;8.198;2023-02-01T10:39:24;5.50;99.90
20728;DHT22;10525;50.154;8.198;2023-02-01T10:41:51;5.50;99.90
20728;DHT22;10525;50.154;8.198;2023-02-01T10:44:22;5.40;99.90
20728;DHT22;10525;50.154;8.198;2023-02-01T10:46:50;5.30;99.90
20728;DHT22;10525;50.154;8.198;2023-02-01T10:49:19;5.30;99.90
20728;DHT22;10525;50.154;8.198;2023-02-01T10:51:50;5.40;99.90
20728;DHT22;10525;50.154;8.198;2023-02-01T10:54:21;5.50;99.90
20728;DHT22;10525;50.154;8.198;2023-02-01T10:56:49;5.40;99.90
20728;DHT22;10525;50.154;8.198;2023-02-01T10:59:20;5.40;99.90
20728;DHT22;10525;50.154;8.198;2023-02-01T11:01:50;5.40;99.90
20728;DHT22;10525;50.154;8.198;2023-02-01T11:04:25;5.60;99.90
20728;DHT22;10525;50.154;8.198;2023-02-01T11:06:53;5.80;99.90
20728;DHT22;10525;50.154;8.198;2023-02-01T11:09:31;5.80;99.90
20728;DHT22;10525;50.154;8.198;2023-02-01T11:12:00;5.80;99.90
20728;DHT22;10525;50.154;8.198;2023-02-01T11:14:35;5.80;99.90
20728;DHT22;10525;50.154;8.198;2023-02-01T11:17:16;5.90;99.90
20728;DHT22;10525;50.154;8.198;2023-02-01T11:19:44;5.90;99.90
20728;DHT22;10525;50.154;8.198;2023-02-01T11:22:12;6.00;99.90
20728;DHT22;10525;50.154;8.198;2023-02-01T11:24:41;5.90;99.90
20728;DHT22;10525;50.154;8.198;2023-02-01T11:27:16;6.00;99.90
20728;DHT22;10525;50.154;8.198;2023-02-01T11:29:46;6.00;99.90
20728;DHT22;10525;50.154;8.198;2023-02-01T11:32:16;6.00;99.90
20728;DHT22;10525;50.154;8.198;2023-02-01T11:34:46;6.10;99.90
20728;DHT22;10525;50.154;8.198;2023-02-01T11:37:18;6.00;99.90
20728;DHT22;10525;50.154;8.198;2023-02-01T11:39:54;6.10;99.90
20728;DHT22;10525;50.154;8.198;2023-02-01T11:42:22;6.20;99.90
20728;DHT22;10525;50.154;8.198;2023-02-01T11:44:49;6.30;99.90
20728;DHT22;10525;50.154;8.198;2023-02-01T11:47:25;6.10;99.90
20728;DHT22;10525;50.154;8.198;2023-02-01T11:49:53;6.20;99.90
20728;DHT22;10525;50.154;8.198;2023-02-01T11:52:33;6.20;99.90
20728;DHT22;10525;50.154;8.198;2023-02-01T11:55:16;6.30;99.90
20728;DHT22;10525;50.154;8.198;2023-02-01T11:57:55;6.10;99.90
20728;DHT22;10525;50.154;8.198;2023-02-01T12:00:49;6.20;99.90
20728;DHT22;10525;50.154;8.198;2023-02-01T12:03:40;6.30;99.90
20728;DHT22;10525;50.154;8.198;2023-02-01T12:06:17;6.30;99.90
20728;DHT22;10525;50.154;8.198;2023-02-01T12:09:11;6.20;99.90
20728;DHT22;10525;50.154;8.198;2023-02-01T12:11:52;6.30;99.90
20728;DHT22;10525;50.154;8.198;2023-02-01T12:14:39;6.40;99.90
20728;DHT22;10525;50.154;8.198;2023-02-01T12:17:38;6.40;99.90
20728;DHT22;10525;50.154;8.198;2023-02-01T12:20:36;6.50;99.90
20728;DHT22;10525;50.154;8.198;2023-02-01T12:23:19;6.50;99.90
20728;DHT22;10525;50.154;8.198;2023-02-01T12:26:00;6.40;99.90
20728;DHT22;10525;50.154;8.198;2023-02-01T12:31:57;6.30;99.90
20728;DHT22;10525;50.154;8.198;2023-02-01T12:37:41;6.40;99.90
20728;DHT22;10525;50.154;8.198;2023-02-01T12:40:18;6.30;99.90
20728;DHT22;10525;50.154;8.198;2023-02-01T12:42:53;6.30;99.90
20728;DHT22;10525;50.154;8.198;2023-02-01T12:45:29;6.20;99.90
20728;DHT22;10525;50.154;8.198;2023-02-01T12:48:08;6.30;99.90
20728;DHT22;10525;50.154;8.198;2023-02-01T12:50:43;6.20;99.90
20728;DHT22;10525;50.154;8.198;2023-02-01T12:53:15;6.10;99.90
20728;DHT22;10525;50.154;8.198;2023-02-01T12:55:49;6.10;99.90
20728;DHT22;10525;50.154;8.198;2023-02-01T12:58:22;6.10;99.90
20728;DHT22;10525;50.154;8.198;2023-02-01T13:00:52;6.10;99.90
20728;DHT22;10525;50.154;8.198;2023-02-01T13:03:29;6.10;99.90
20728;DHT22;10525;50.154;8.198;2023-02-01T13:06:02;6.20;99.90
20728;DHT22;10525;50.154;8.198;2023-02-01T13:08:40;6.20;99.90
20728;DHT22;10525;50.154;8.198;2023-02-01T13:11:11;6.20;99.90
20728;DHT22;10525;50.154;8.198;2023-02-01T13:13:46;6.20;99.90
20728;DHT22;10525;50.154;8.198;2023-02-01T13:16:17;6.20;99.90
20728;DHT22;10525;50.154;8.198;2023-02-01T13:18:50;6.30;99.90
20728;DHT22;10525;50.154;8.198;2023-02-01T13:21:21;6.10;99.90
20728;DHT22;10525;50.154;8.198;2023-02-01T13:23:50;6.10;99.90
20728;DHT22;10525;50.154;8.198;2023-02-01T13:26:18;6.00;99.90
20728;DHT22;10525;50.154;8.198;2023-02-01T13:28:47;6.00;99.90
20728;DHT22;10525;50.154;8.198;2023-02-01T13:34:48;5.90;99.90
20728;DHT22;10525;50.154;8.198;2023-02-01T13:37:30;6.00;99.90
20728;DHT22;10525;50.154;8.198;2023-02-01T13:40:18;6.00;99.90
20728;DHT22;10525;50.154;8.198;2023-02-01T13:42:52;6.10;99.90
20728;DHT22;10525;50.154;8.198;2023-02-01T13:45:21;6.00;99.90
20728;DHT22;10525;50.154;8.198;2023-02-01T13:47:51;6.10;99.90
20728;DHT22;10525;50.154;8.198;2023-02-01T13:50:26;5.90;99.90
20728;DHT22;10525;50.154;8.198;2023-02-01T13:52:55;5.90;99.90
20728;DHT22;10525;50.154;8.198;2023-02-01T13:55:26;5.80;99.90
20728;DHT22;10525;50.154;8.198;2023-02-01T13:58:01;5.80;99.90
20728;DHT22;10525;50.154;8.198;2023-02-01T14:00:30;5.90;99.90
20728;DHT22;10525;50.154;8.198;2023-02-01T14:03:13;5.80;99.90
20728;DHT22;10525;50.154;8.198;2023-02-01T14:06:17;5.80;99.90
20728;DHT22;10525;50.154;8.198;2023-02-01T14:09:10;5.80;99.90
20728;DHT22;10525;50.154;8.198;2023-02-01T14:11:40;5.90;99.90
20728;DHT22;10525;50.154;8.198;2023-02-01T14:14:38;5.90;99.90
20728;DHT22;10525;50.154;8.198;2023-02-01T14:17:35;6.00;99.90
20728;DHT22;10525;50.154;8.198;2023-02-01T14:23:28;6.00;99.90
20728;DHT22;10525;50.154;8.198;2023-02-01T14:26:08;6.10;99.90
20728;DHT22;10525;50.154;8.198;2023-02-01T14:28:38;6.00;99.90
20728;DHT22;10525;50.154;8.198;2023-02-01T14:31:24;6.00;99.90
20728;DHT22;10525;50.154;8.198;2023-02-01T14:33:55;6.00;99.90
20728;DHT22;10525;50.154;8.198;2023-02-01T14:36:23;6.10;99.90
20728;DHT22;10525;50.154;8.198;2023-02-01T14:38:52;6.00;99.90
20728;DHT22;10525;50.154;8.198;2023-02-01T14:41:40;6.10;99.90
20728;DHT22;10525;50.154;8.198;2023-02-01T14:44:33;6.20;99.90
20728;DHT22;10525;50.154;8.198;2023-02-01T14:47:28;6.30;99.90
20728;DHT22;10525;50.154;8.198;2023-02-01T14:50:00;6.30;99.90
20728;DHT22;10525;50.154;8.198;2023-02-01T14:52:32;6.30;99.90
20728;DHT22;10525;50.154;8.198;2023-02-01T14:55:05;6.20;99.90
20728;DHT22;10525;50.154;8.198;2023-02-01T14:57:36;6.20;99.90
20728;DHT22;10525;50.154;8.198;2023-02-01T15:00:14;6.20;99.90
20728;DHT22;10525;50.154;8.198;2023-02-01T15:02:43;6.20;99.90
20728;DHT22;10525;50.154;8.198;2023-02-01T15:05:26;6.10;99.90
20728;DHT22;10525;50.154;8.198;2023-02-01T15:07:55;6.00;99.90
20728;DHT22;10525;50.154;8.198;2023-02-01T15:10:25;6.00;99.90
20728;DHT22;10525;50.154;8.198;2023-02-01T15:12:53;5.90;99.90
20728;DHT22;10525;50.154;8.198;2023-02-01T15:15:21;5.90;99.90
20728;DHT22;10525;50.154;8.198;2023-02-01T15:17:51;5.90;99.90
20728;DHT22;10525;50.154;8.198;2023-02-01T15:20:20;5.90;99.90
20728;DHT22;10525;50.154;8.198;2023-02-01T15:22:56;5.90;99.90
20728;DHT22;10525;50.154;8.198;2023-02-01T15:25:26;5.90;99.90
20728;DHT22;10525;50.154;8.198;2023-02-01T15:27:53;5.90;99.90
20728;DHT22;10525;50.154;8.198;2023-02-01T15:30:22;5.90;99.90
20728;DHT22;10525;50.154;8.198;2023-02-01T15:32:49;5.80;99.90
20728;DHT22;10525;50.154;8.198;2023-02-01T15:35:40;5.80;99.90
20728;DHT22;10525;50.154;8.198;2023-02-01T15:38:37;5.80;99.90
20728;DHT22;10525;50.154;8.198;2023-02-01T15:41:09;5.70;99.90
20728;DHT22;10525;50.154;8.198;2023-02-01T15:43:40;5.60;99.90
20728;DHT22;10525;50.154;8.198;2023-02-01T15:46:11;5.50;99.90
20728;DHT22;10525;50.154;8.198;2023-02-01T15:48:43;5.60;99.90
20728;DHT22;10525;50.154;8.198;2023-02-01T15:51:16;5.60;99.90
20728;DHT22;10525;50.154;8.198;2023-02-01T15:53:50;5.60;99.90
20728;DHT22;10525;50.154;8.198;2023-02-01T15:56:24;5.60;99.90
20728;DHT22;10525;50.154;8.198;2023-02-01T15:58:57;5.60;99.90
20728;DHT22;10525;50.154;8.198;2023-02-01T16:01:25;5.60;99.90
20728;DHT22;10525;50.154;8.198;2023-02-01T16:04:03;5.60;99.90
20728;DHT22;10525;50.154;8.198;2023-02-01T16:06:31;5.60;99.90
20728;DHT22;10525;50.154;8.198;2023-02-01T16:09:03;5.60;99.90
20728;DHT22;10525;50.154;8.198;2023-02-01T16:11:39;5.50;99.90
20728;DHT22;10525;50.154;8.198;2023-02-01T16:14:06;5.50;99.90
20728;DHT22;10525;50.154;8.198;2023-02-01T16:16:33;5.50;99.90
20728;DHT22;10525;50.154;8.198;2023-02-01T16:19:00;5.50;99.90
20728;DHT22;10525;50.154;8.198;2023-02-01T16:21:26;5.50;99.90
20728;DHT22;10525;50.154;8.198;2023-02-01T16:23:53;5.50;99.90
20728;DHT22;10525;50.154;8.198;2023-02-01T16:26:20;5.50;99.90
20728;DHT22;10525;50.154;8.198;2023-02-01T16:28:48;5.60;99.90